createdAt,value
2022-11-05T00:00:22.066Z,99784.09
2022-11-05T00:03:08.240Z,99785.72
2022-11-05T00:05:53.638Z,99788.19
2022-11-05T00:08:40.682Z,99775.59
2022-11-05T00:11:11.479Z,99785.25
2022-11-05T00:13:59.424Z,99784.69
2022-11-05T00:16:45.528Z,99784.44
2022-11-05T00:19:15.028Z,99780.94
2022-11-05T00:22:00.670Z,99786.28
2022-11-05T00:24:47.276Z,99783.06
2022-11-05T00:27:15.527Z,99781.03
2022-11-05T00:29:44.446Z,99779.38
2022-11-05T00:32:12.458Z,99777.53
2022-11-05T00:34:40.489Z,99783.69
2022-11-05T00:37:08.398Z,99785.13
2022-11-05T00:39:38.197Z,99784.69
2022-11-05T00:42:23.952Z,99781.19
2022-11-05T00:45:02.159Z,99777.69
2022-11-05T00:47:47.842Z,99778.94
2022-11-05T00:50:16.210Z,99780.81
2022-11-05T00:52:59.822Z,99778.13
2022-11-05T00:55:39.760Z,99777.47
2022-11-05T00:58:10.277Z,99782.00
2022-11-05T01:00:40.137Z,99775.38
2022-11-05T01:03:10.959Z,99778.03
2022-11-05T01:05:44.268Z,99779.25
2022-11-05T01:08:13.999Z,99784.59
2022-11-05T01:10:44.541Z,99779.03
2022-11-05T01:13:14.329Z,99783.13
2022-11-05T01:15:43.349Z,99790.34
2022-11-05T01:18:11.467Z,99778.81
2022-11-05T01:20:39.900Z,99787.22
2022-11-05T01:23:13.211Z,99784.38
2022-11-05T01:25:43.868Z,99783.34
2022-11-05T01:28:12.363Z,99787.66
2022-11-05T01:30:42.024Z,99782.09
2022-11-05T01:33:10.420Z,99777.56
2022-11-05T01:35:44.322Z,99781.63
2022-11-05T01:38:12.533Z,99775.81
2022-11-05T01:40:45.676Z,99779.31
2022-11-05T01:43:17.725Z,99777.03
2022-11-05T01:45:48.858Z,99773.09
2022-11-05T01:48:19.768Z,99779.28
2022-11-05T01:50:58.769Z,99778.78
2022-11-05T01:53:31.931Z,99783.59
2022-11-05T01:56:08.015Z,99779.28
2022-11-05T01:58:41.053Z,99779.47
2022-11-05T02:01:09.431Z,99780.31
2022-11-05T02:03:37.656Z,99780.53
2022-11-05T02:06:09.600Z,99781.56
2022-11-05T02:08:54.670Z,99783.03
2022-11-05T02:11:24.643Z,99781.28
2022-11-05T02:13:52.787Z,99796.13
2022-11-05T02:16:34.048Z,99785.03
2022-11-05T02:19:16.400Z,99775.84
2022-11-05T02:22:18.204Z,99784.31
2022-11-05T02:25:12.059Z,99784.53
2022-11-05T02:28:12.335Z,99774.84
2022-11-05T02:30:49.768Z,99778.56
2022-11-05T02:33:30.902Z,99779.59
2022-11-05T02:36:19.106Z,99779.38
2022-11-05T02:38:54.505Z,99784.75
2022-11-05T02:41:31.075Z,99782.28
2022-11-05T02:44:09.418Z,99780.44
2022-11-05T02:46:49.114Z,99784.13
2022-11-05T02:49:25.480Z,99782.28
2022-11-05T02:51:58.396Z,99780.63
2022-11-05T02:54:30.802Z,99774.47
2022-11-05T02:57:03.020Z,99769.09
2022-11-05T02:59:31.184Z,99780.28
2022-11-05T03:02:02.115Z,99770.84
2022-11-05T03:04:32.245Z,99771.66
2022-11-05T03:07:17.447Z,99782.38
2022-11-05T03:10:09.868Z,99783.63
2022-11-05T03:12:52.934Z,99779.69
2022-11-05T03:15:32.251Z,99782.97
2022-11-05T03:18:08.592Z,99784.81
2022-11-05T03:20:41.997Z,99782.38
2022-11-05T03:23:17.593Z,99785.25
2022-11-05T03:25:50.214Z,99782.38
2022-11-05T03:28:23.613Z,99792.25
2022-11-05T03:30:53.596Z,99786.06
2022-11-05T03:33:29.238Z,99784.44
2022-11-05T03:36:02.943Z,99781.16
2022-11-05T03:38:36.128Z,99788.16
2022-11-05T03:41:08.978Z,99791.25
2022-11-05T03:43:41.687Z,99787.97
2022-11-05T03:46:14.497Z,99790.66
2022-11-05T03:48:48.664Z,99785.53
2022-11-05T03:51:26.807Z,99784.69
2022-11-05T03:54:09.273Z,99795.41
2022-11-05T03:56:42.044Z,99795.66
2022-11-05T03:59:12.330Z,99787.84
2022-11-05T04:01:40.993Z,99783.31
2022-11-05T04:04:11.232Z,99789.47
2022-11-05T04:06:56.509Z,99780.84
2022-11-05T04:09:42.203Z,99791.56
2022-11-05T04:12:28.800Z,99781.88
2022-11-05T04:14:56.791Z,99785.81
2022-11-05T04:17:23.764Z,99783.34
2022-11-05T04:20:10.637Z,99784.16
2022-11-05T04:22:56.260Z,99785.81
2022-11-05T04:25:24.291Z,99794.06
2022-11-05T04:27:52.965Z,99803.13
2022-11-05T04:30:21.775Z,99793.66
2022-11-05T04:33:01.020Z,99795.31
2022-11-05T04:35:33.061Z,99791.00
2022-11-05T04:38:01.304Z,99801.47
2022-11-05T04:40:29.555Z,99795.31
2022-11-05T04:42:58.486Z,99799.41
2022-11-05T04:45:29.031Z,99792.41
2022-11-05T04:47:57.012Z,99798.59
2022-11-05T04:50:25.362Z,99808.47
2022-11-05T04:52:56.120Z,99814.25
2022-11-05T04:55:24.417Z,99801.78
2022-11-05T04:57:53.900Z,99807.75
2022-11-05T05:00:23.721Z,99809.25
2022-11-05T05:02:51.745Z,99795.50
2022-11-05T05:05:19.787Z,99798.97
2022-11-05T05:07:47.742Z,99793.44
2022-11-05T05:10:17.098Z,99799.22
2022-11-05T05:12:45.086Z,99792.69
2022-11-05T05:15:13.112Z,99794.38
2022-11-05T05:17:41.199Z,99798.91
2022-11-05T05:20:27.055Z,99795.19
2022-11-05T05:22:55.962Z,99793.34
2022-11-05T05:25:25.495Z,99799.28
2022-11-05T05:27:53.484Z,99797.44
2022-11-05T05:30:21.596Z,99799.28
2022-11-05T05:32:49.590Z,99794.75
2022-11-05T05:35:18.234Z,99793.72
2022-11-05T05:37:46.342Z,99805.88
2022-11-05T05:40:14.329Z,99800.72
2022-11-05T05:42:44.121Z,99800.50
2022-11-05T05:45:12.878Z,99806.69
2022-11-05T05:47:41.071Z,99789.19
2022-11-05T05:50:09.444Z,99796.41
2022-11-05T05:52:37.348Z,99802.38
2022-11-05T05:55:06.033Z,99788.59
2022-11-05T05:57:35.464Z,99788.00
2022-11-05T06:00:06.310Z,99789.84
2022-11-05T06:02:34.681Z,99796.22
2022-11-05T06:05:02.736Z,99792.53
2022-11-05T06:07:34.515Z,99802.41
2022-11-05T06:10:05.836Z,99808.34
2022-11-05T06:12:34.128Z,99795.19
2022-11-05T06:15:02.110Z,99803.22
2022-11-05T06:17:31.482Z,99801.78
2022-11-05T06:19:59.470Z,99806.78
2022-11-05T06:22:27.446Z,99803.03
2022-11-05T06:24:55.485Z,99812.69
2022-11-05T06:27:24.650Z,99808.78
2022-11-05T06:29:52.584Z,99806.31
2022-11-05T06:32:20.607Z,99804.69
2022-11-05T06:34:50.094Z,99804.69
2022-11-05T06:37:18.013Z,99805.72
2022-11-05T06:39:45.983Z,99804.31
2022-11-05T06:42:18.712Z,99801.25
2022-11-05T06:44:47.005Z,99805.78
2022-11-05T06:47:14.945Z,99802.88
2022-11-05T06:49:42.866Z,99808.44
2022-11-05T06:52:13.167Z,99813.78
2022-11-05T06:54:42.451Z,99806.59
2022-11-05T06:57:11.576Z,99811.94
2022-11-05T06:59:40.258Z,99810.69
2022-11-05T07:02:12.326Z,99815.59
2022-11-05T07:04:40.471Z,99816.41
2022-11-05T07:07:08.613Z,99816.66
2022-11-05T07:09:40.583Z,99818.50
2022-11-05T07:12:09.066Z,99815.66
2022-11-05T07:14:37.138Z,99824.31
2022-11-05T07:17:05.351Z,99821.63
2022-11-05T07:19:33.375Z,99827.81
2022-11-05T07:22:01.385Z,99823.94
2022-11-05T07:24:29.364Z,99820.44
2022-11-05T07:27:00.623Z,99828.25
2022-11-05T07:29:28.592Z,99816.50
2022-11-05T07:31:56.515Z,99814.63
2022-11-05T07:34:24.499Z,99815.25
2022-11-05T07:36:53.376Z,99817.91
2022-11-05T07:39:21.706Z,99813.41
2022-11-05T07:41:49.750Z,99813.41
2022-11-05T07:44:19.133Z,99813.41
2022-11-05T07:46:47.127Z,99815.25
2022-11-05T07:49:16.260Z,99816.28
2022-11-05T07:51:44.632Z,99821.25
2022-11-05T07:54:12.880Z,99814.47
2022-11-05T07:56:40.873Z,99810.78
2022-11-05T07:59:09.102Z,99814.28
2022-11-05T08:01:38.736Z,99811.38
2022-11-05T08:04:06.842Z,99813.81
2022-11-05T08:06:34.828Z,99811.38
2022-11-05T08:09:02.755Z,99806.03
2022-11-05T08:11:30.711Z,99806.84
2022-11-05T08:13:58.716Z,99806.03
2022-11-05T08:16:26.691Z,99806.84
2022-11-05T08:18:56.142Z,99803.13
2022-11-05T08:21:24.134Z,99795.34
2022-11-05T08:23:52.081Z,99794.53
2022-11-05T08:26:20.702Z,99800.69
2022-11-05T08:28:48.804Z,99795.34
2022-11-05T08:31:18.258Z,99791.84
2022-11-05T08:33:46.174Z,99790.56
2022-11-05T08:36:16.615Z,99793.25
2022-11-05T08:38:44.563Z,99779.06
2022-11-05T08:41:13.821Z,99788.50
2022-11-05T08:43:41.822Z,99779.66
2022-11-05T08:46:09.966Z,99787.47
2022-11-05T08:48:38.032Z,99777.38
2022-11-05T08:51:06.283Z,99771.22
2022-11-05T08:53:35.618Z,99775.13
2022-11-05T08:56:04.056Z,99775.13
2022-11-05T08:58:32.924Z,99779.44
2022-11-05T09:01:04.967Z,99775.75
2022-11-05T09:03:33.727Z,99776.56
2022-11-05T09:06:02.077Z,99774.50
2022-11-05T09:08:30.069Z,99778.81
2022-11-05T09:10:59.986Z,99783.13
2022-11-05T09:13:28.393Z,99775.94
2022-11-05T09:15:56.576Z,99784.56
2022-11-05T09:18:24.973Z,99780.81
2022-11-05T09:20:53.867Z,99787.81
2022-11-05T09:23:21.867Z,99788.06
2022-11-05T09:25:50.001Z,99783.50
2022-11-05T09:28:21.551Z,99783.06
2022-11-05T09:30:51.396Z,99779.75
2022-11-05T09:33:21.467Z,99776.19
2022-11-05T09:35:49.516Z,99776.78
2022-11-05T09:38:18.339Z,99772.44
2022-11-05T09:41:00.480Z,99780.19
2022-11-05T09:43:34.901Z,99770.91
2022-11-05T09:46:08.704Z,99767.78
2022-11-05T09:48:39.502Z,99777.25
2022-11-05T09:51:08.117Z,99770.03
2022-11-05T09:53:41.206Z,99785.88
2022-11-05T09:56:21.175Z,99769.56
2022-11-05T09:58:54.349Z,99771.81
2022-11-05T10:01:26.960Z,99766.03
2022-11-05T10:03:58.089Z,99759.44
2022-11-05T10:06:27.923Z,99758.19
2022-11-05T10:09:04.723Z,99757.94
2022-11-05T10:11:38.364Z,99763.06
2022-11-05T10:14:16.574Z,99756.69
2022-11-05T10:16:49.910Z,99760.16
2022-11-05T10:19:24.546Z,99756.06
2022-11-05T10:22:11.469Z,99759.88
2022-11-05T10:24:42.928Z,99759.91
2022-11-05T10:27:18.519Z,99747.34
2022-11-05T10:29:49.353Z,99749.59
2022-11-05T10:32:27.788Z,99752.44
2022-11-05T10:34:59.280Z,99757.94
2022-11-05T10:37:29.014Z,99758.31
2022-11-05T10:39:57.690Z,99757.66
2022-11-05T10:42:39.835Z,99758.41
2022-11-05T10:45:18.827Z,99760.19
2022-11-05T10:47:59.169Z,99759.50
2022-11-05T10:50:28.883Z,99763.00
2022-11-05T10:53:00.344Z,99757.75
2022-11-05T10:55:30.992Z,99767.03
2022-11-05T10:58:10.720Z,99765.41
2022-11-05T11:00:40.653Z,99756.09
2022-11-05T11:03:34.992Z,99764.09
2022-11-05T11:06:05.407Z,99758.47
2022-11-05T11:08:36.759Z,99759.69
2022-11-05T11:11:09.076Z,99760.50
2022-11-05T11:13:51.767Z,99763.56
2022-11-05T11:16:24.270Z,99762.31
2022-11-05T11:18:55.226Z,99767.66
2022-11-05T11:21:24.420Z,99775.00
2022-11-05T11:23:57.348Z,99766.97
2022-11-05T11:26:27.694Z,99776.25
2022-11-05T11:29:01.278Z,99779.41
2022-11-05T11:31:38.331Z,99775.09
2022-11-05T11:34:13.264Z,99768.47
2022-11-05T11:36:45.532Z,99768.22
2022-11-05T11:39:17.734Z,99770.13
2022-11-05T11:41:47.752Z,99765.63
2022-11-05T11:44:20.099Z,99771.59
2022-11-05T11:46:52.368Z,99773.44
2022-11-05T11:49:35.226Z,99771.81
2022-11-05T11:52:06.334Z,99771.81
2022-11-05T11:54:35.429Z,99780.50
2022-11-05T11:57:04.117Z,99774.31
2022-11-05T12:00:02.026Z,99777.59
2022-11-05T12:03:02.258Z,99768.09
2022-11-05T12:05:36.507Z,99776.50
2022-11-05T12:08:17.973Z,99767.28
2022-11-05T12:11:01.927Z,99767.13
2022-11-05T12:13:53.850Z,99761.97
2022-11-05T12:16:54.135Z,99763.00
2022-11-05T12:19:34.418Z,99755.38
2022-11-05T12:22:11.972Z,99750.38
2022-11-05T12:25:19.012Z,99756.13
2022-11-05T12:28:04.570Z,99754.63
2022-11-05T12:30:42.977Z,99749.63
2022-11-05T12:33:25.618Z,99737.44
2022-11-05T12:36:08.286Z,99738.16
2022-11-05T12:38:52.886Z,99739.34
2022-11-05T12:41:27.754Z,99738.31
2022-11-05T12:44:15.717Z,99735.41
2022-11-05T12:46:54.503Z,99742.53
2022-11-05T12:49:48.760Z,99741.09
2022-11-05T12:52:45.298Z,99739.22
2022-11-05T12:55:19.410Z,99747.91
2022-11-05T12:57:50.554Z,99744.72
2022-11-05T13:00:21.764Z,99740.72
2022-11-05T13:02:56.330Z,99744.13
2022-11-05T13:05:35.487Z,99748.38
2022-11-05T13:08:10.447Z,99751.94
2022-11-05T13:10:42.482Z,99745.41
2022-11-05T13:13:24.558Z,99762.13
2022-11-05T13:15:56.380Z,99756.75
2022-11-05T13:18:31.703Z,99750.38
2022-11-05T13:21:02.945Z,99754.03
2022-11-05T13:23:36.935Z,99756.06
2022-11-05T13:26:21.501Z,99754.75
2022-11-05T13:28:55.879Z,99757.66
2022-11-05T13:31:36.833Z,99754.16
2022-11-05T13:34:11.062Z,99755.44
2022-11-05T13:37:06.867Z,99759.38
2022-11-05T13:39:39.530Z,99749.72
2022-11-05T13:42:49.538Z,99750.09
2022-11-05T13:45:33.043Z,99753.44
2022-11-05T13:48:18.862Z,99749.31
2022-11-05T13:51:19.785Z,99754.56
2022-11-05T13:54:03.437Z,99744.06
2022-11-05T13:56:47.935Z,99736.69
2022-11-05T13:59:36.008Z,99747.81
2022-11-05T14:02:11.707Z,99746.19
2022-11-05T14:04:46.124Z,99749.06
2022-11-05T14:07:19.497Z,99748.88
2022-11-05T14:09:48.603Z,99749.69
2022-11-05T14:12:24.531Z,99748.03
2022-11-05T14:14:59.171Z,99746.66
2022-11-05T14:17:32.300Z,99743.38
2022-11-05T14:20:26.230Z,99741.56
2022-11-05T14:22:54.705Z,99749.06
2022-11-05T14:25:54.270Z,99752.00
2022-11-05T14:28:46.408Z,99744.34
2022-11-05T14:34:54.748Z,99752.50
2022-11-05T14:37:28.888Z,99744.97
2022-11-05T14:39:57.952Z,99748.47
2022-11-05T14:42:29.765Z,99750.41
2022-11-05T14:45:22.030Z,99748.53
2022-11-05T14:47:56.305Z,99744.69
2022-11-05T14:50:31.824Z,99753.13
2022-11-05T14:53:13.276Z,99747.78
2022-11-05T14:55:44.705Z,99755.59
2022-11-05T14:58:36.595Z,99759.50
2022-11-05T15:01:08.014Z,99758.06
2022-11-05T15:04:04.079Z,99760.56
2022-11-05T15:06:36.904Z,99759.16
2022-11-05T15:09:28.215Z,99760.81
2022-11-05T15:12:05.843Z,99761.28
2022-11-05T15:14:37.756Z,99763.38
2022-11-05T15:17:18.482Z,99767.91
2022-11-05T15:19:48.133Z,99766.09
2022-11-05T15:22:35.917Z,99763.44
2022-11-05T15:25:05.836Z,99767.59
2022-11-05T15:27:48.140Z,99771.09
2022-11-05T15:30:17.989Z,99771.28
2022-11-05T15:32:48.056Z,99770.88
2022-11-05T15:35:33.100Z,99769.25
2022-11-05T15:38:02.718Z,99773.78
2022-11-05T15:40:32.879Z,99773.16
2022-11-05T15:43:14.104Z,99771.53
2022-11-05T15:45:42.569Z,99769.06
2022-11-05T15:48:16.187Z,99771.94
2022-11-05T15:50:44.576Z,99762.09
2022-11-05T15:53:47.479Z,99774.03
2022-11-05T15:56:22.987Z,99771.97
2022-11-05T15:58:53.755Z,99777.72
2022-11-05T16:01:23.940Z,99777.09
2022-11-05T16:03:54.572Z,99774.66
2022-11-05T16:06:34.297Z,99782.66
2022-11-05T16:09:02.806Z,99788.81
2022-11-05T16:11:31.177Z,99779.38
2022-11-05T16:14:16.225Z,99776.91
2022-11-05T16:16:45.335Z,99776.06
2022-11-05T16:19:40.509Z,99784.09
2022-11-05T16:22:09.051Z,99781.22
2022-11-05T16:24:37.162Z,99778.16
2022-11-05T16:27:05.790Z,99775.25
2022-11-05T16:29:37.121Z,99782.25
2022-11-05T16:32:07.681Z,99785.53
2022-11-05T16:34:41.332Z,99778.34
2022-11-05T16:37:13.407Z,99780.59
2022-11-05T16:39:41.761Z,99785.72
2022-11-05T16:42:48.296Z,99789.19
2022-11-05T16:45:18.843Z,99788.78
2022-11-05T16:47:47.515Z,99779.50
2022-11-05T16:50:24.487Z,99796.72
2022-11-05T16:52:52.870Z,99790.16
2022-11-05T16:55:21.296Z,99784.41
2022-11-05T16:57:52.426Z,99784.59
2022-11-05T17:00:22.179Z,99786.03
2022-11-05T17:02:50.636Z,99785.44
2022-11-05T17:05:23.354Z,99793.63
2022-11-05T17:07:53.430Z,99795.03
2022-11-05T17:10:23.176Z,99790.09
2022-11-05T17:12:52.138Z,99796.88
2022-11-05T17:15:23.671Z,99790.28
2022-11-05T17:17:52.343Z,99797.66
2022-11-05T17:20:39.428Z,99792.72
2022-11-05T17:23:10.206Z,99802.53
2022-11-05T17:25:38.961Z,99797.66
2022-11-05T17:28:07.534Z,99801.91
2022-11-05T17:30:41.389Z,99798.66
2022-11-05T17:33:12.060Z,99796.78
2022-11-05T17:35:43.255Z,99806.41
2022-11-05T17:38:11.833Z,99804.75
2022-11-05T17:40:40.798Z,99810.47
2022-11-05T17:43:09.947Z,99805.34
2022-11-05T17:45:43.628Z,99815.41
2022-11-05T17:48:12.374Z,99811.09
2022-11-05T17:50:46.154Z,99812.31
2022-11-05T17:53:14.929Z,99814.16
2022-11-05T17:55:43.649Z,99816.19
2022-11-05T17:58:12.131Z,99824.56
2022-11-05T18:00:41.318Z,99826.59
2022-11-05T18:03:10.852Z,99837.22
2022-11-05T18:05:40.134Z,99828.03
2022-11-05T18:08:10.219Z,99830.50
2022-11-05T18:10:39.402Z,99835.63
2022-11-05T18:13:07.432Z,99838.94
2022-11-05T18:15:38.111Z,99832.59
2022-11-05T18:18:06.138Z,99842.22
2022-11-05T18:20:34.550Z,99842.03
2022-11-05T18:23:03.407Z,99837.31
2022-11-05T18:25:40.489Z,99849.41
2022-11-05T18:28:09.360Z,99837.75
2022-11-05T18:30:40.226Z,99833.22
2022-11-05T18:33:09.481Z,99834.06
2022-11-05T18:35:42.215Z,99834.06
2022-11-05T18:38:10.546Z,99840.22
2022-11-05T18:40:40.419Z,99841.84
2022-11-05T18:43:08.659Z,99854.16
2022-11-05T18:45:36.648Z,99843.69
2022-11-05T18:48:05.302Z,99846.34
2022-11-05T18:50:33.385Z,99854.97
2022-11-05T18:53:01.374Z,99860.09
2022-11-05T18:55:29.478Z,99860.09
2022-11-05T18:57:58.854Z,99856.63
2022-11-05T19:00:27.948Z,99858.66
2022-11-05T19:02:56.272Z,99865.00
2022-11-05T19:05:29.515Z,99864.16
2022-11-05T19:07:58.329Z,99851.69
2022-11-05T19:10:26.506Z,99867.28
2022-11-05T19:12:54.793Z,99845.97
2022-11-05T19:15:24.186Z,99848.44
2022-11-05T19:17:52.183Z,99851.91
2022-11-05T19:20:20.211Z,99846.78
2022-11-05T19:22:48.259Z,99857.63
2022-11-05T19:25:16.273Z,99856.44
2022-11-05T19:27:44.524Z,99852.94
2022-11-05T19:30:14.012Z,99854.97
2022-11-05T19:32:43.517Z,99856.81
2022-11-05T19:35:11.616Z,99854.34
2022-11-05T19:37:39.734Z,99859.03
2022-11-05T19:40:09.438Z,99861.91
2022-11-05T19:42:37.606Z,99859.63
2022-11-05T19:45:30.446Z,99866.78
2022-11-05T19:47:55.786Z,99855.34
2022-11-05T19:50:23.798Z,99859.03
2022-11-05T19:52:51.860Z,99858.19
2022-11-05T19:55:20.106Z,99858.38
2022-11-05T19:57:48.052Z,99864.53
2022-11-05T20:00:18.117Z,99859.41
2022-11-05T20:02:46.499Z,99859.59
2022-11-05T20:05:18.166Z,99864.09
2022-11-05T20:07:51.422Z,99868.78
2022-11-05T20:10:21.270Z,99872.84
2022-11-05T20:12:49.272Z,99874.91
2022-11-05T20:15:19.134Z,99875.09
2022-11-05T20:17:50.330Z,99875.50
2022-11-05T20:20:20.764Z,99892.47
2022-11-05T20:22:48.712Z,99889.19
2022-11-05T20:25:17.228Z,99889.38
2022-11-05T20:27:45.455Z,99884.25
2022-11-05T20:30:14.733Z,99878.91
2022-11-05T20:32:42.744Z,99880.97
2022-11-05T20:35:11.377Z,99880.97
2022-11-05T20:37:42.976Z,99888.31
2022-11-05T20:40:14.103Z,99885.03
2022-11-05T20:42:42.722Z,99894.66
2022-11-05T20:45:11.916Z,99890.34
2022-11-05T20:47:41.404Z,99897.50
2022-11-05T20:50:10.827Z,99891.38
2022-11-05T20:52:40.480Z,99899.34
2022-11-05T20:55:09.743Z,99901.19
2022-11-05T20:57:38.479Z,99908.16
2022-11-05T21:00:07.987Z,99910.00
2022-11-05T21:02:36.991Z,99914.31
2022-11-05T21:05:07.487Z,99914.13
2022-11-05T21:07:36.024Z,99906.13
2022-11-05T21:10:06.976Z,99895.31
2022-11-05T21:12:35.575Z,99900.81
2022-11-05T21:15:03.671Z,99904.50
2022-11-05T21:17:32.436Z,99908.78
2022-11-05T21:20:00.440Z,99907.97
2022-11-05T21:22:29.074Z,99913.28
2022-11-05T21:24:58.033Z,99910.00
2022-11-05T21:27:27.536Z,99917.78
2022-11-05T21:29:55.453Z,99919.63
2022-11-05T21:32:24.139Z,99923.94
2022-11-05T21:34:52.059Z,99915.97
2022-11-05T21:37:20.437Z,99918.44
2022-11-05T21:39:48.379Z,99918.44
2022-11-05T21:42:16.441Z,99915.13
2022-11-05T21:44:45.816Z,99912.47
2022-11-05T21:47:13.932Z,99910.00
2022-11-05T21:49:42.070Z,99918.81
2022-11-05T21:52:29.909Z,99921.66
2022-11-05T21:55:15.483Z,99920.19
2022-11-05T21:58:01.330Z,99920.19
2022-11-05T22:00:31.185Z,99914.25
2022-11-05T22:03:00.064Z,99918.75
2022-11-05T22:05:33.644Z,99919.75
2022-11-05T22:08:01.852Z,99921.41
2022-11-05T22:10:29.859Z,99917.91
2022-11-05T22:12:57.817Z,99925.06
2022-11-05T22:15:26.134Z,99923.25
2022-11-05T22:18:00.258Z,99925.06
2022-11-05T22:20:28.240Z,99926.13
2022-11-05T22:22:56.191Z,99917.50
2022-11-05T22:25:24.318Z,99934.66
2022-11-05T22:27:52.594Z,99938.53
2022-11-05T22:30:21.947Z,99931.56
2022-11-05T22:32:49.969Z,99927.25
2022-11-05T22:35:19.410Z,99926.81
2022-11-05T22:37:47.376Z,99934.19
2022-11-05T22:40:15.400Z,99933.53
2022-11-05T22:42:43.605Z,99929.41
2022-11-05T22:45:12.031Z,99927.97
2022-11-05T22:47:42.507Z,99926.13
2022-11-05T22:50:11.293Z,99927.97
2022-11-05T22:52:42.799Z,99926.13
2022-11-05T22:55:11.155Z,99922.44
2022-11-05T22:57:39.146Z,99925.75
2022-11-05T23:00:15.338Z,99922.06
2022-11-05T23:02:43.531Z,99926.38
2022-11-05T23:05:11.556Z,99921.69
2022-11-05T23:07:58.759Z,99930.50
2022-11-05T23:10:44.354Z,99924.78
2022-11-05T23:13:12.285Z,99933.78
2022-11-05T23:15:57.484Z,99929.09
2022-11-05T23:18:42.966Z,99927.25
2022-11-05T23:21:28.279Z,99930.91
2022-11-05T23:24:05.507Z,99926.44
2022-11-05T23:26:54.049Z,99926.25
2022-11-05T23:29:25.384Z,99935.50
2022-11-05T23:32:12.045Z,99934.47
2022-11-05T23:34:40.638Z,99931.81
2022-11-05T23:37:26.403Z,99930.63
2022-11-05T23:39:56.688Z,99931.22
2022-11-05T23:42:42.169Z,99925.91
2022-11-05T23:45:28.486Z,99925.53
2022-11-05T23:48:14.350Z,99925.78
2022-11-05T23:50:43.095Z,99919.25
2022-11-05T23:53:11.700Z,99918.84
2022-11-05T23:55:41.100Z,99918.47
2022-11-05T23:58:09.585Z,99914.41
